Time;durP1;ratioP1;P1;durP2;ratioP2;P2;SDS_P1;SDS_P2;PMS_P1;PMS_P2;Temp;Humidity;BMP_temperature;BMP_pressure;BME280_temperature;BME280_humidity;BME280_pressure;Samples;Min_cycle;Max_cycle;Signal;HPM_P1;HPM_P2
2022/09/22 00:04:38;;;;;;;17.5;22.9;;;;;;;9.8;90.8;99310;;;;
2022/09/22 00:14:38;;;;;;;17.5;22.9;;;;;;;9.6;90.9;99310;;;;
2022/09/22 00:25:38;;;;;;;15.8;20.6;;;;;;;9.5;91.4;99320;;;;
2022/09/22 00:36:38;;;;;;;15.8;20.6;;;;;;;9.4;91.7;99310;;;;
2022/09/22 00:46:38;;;;;;;15.8;20.6;;;;;;;9.3;91.7;99320;;;;
2022/09/22 00:56:38;;;;;;;16.7;20;;;;;;;9.2;91.7;99320;;;;
2022/09/22 01:07:38;;;;;;;16.7;20;;;;;;;9.3;92.1;99320;;;;
2022/09/22 01:17:38;;;;;;;16.7;20;;;;;;;9.4;92.6;99330;;;;
2022/09/22 01:28:38;;;;;;;17.5;20.7;;;;;;;9.5;92.6;99320;;;;
2022/09/22 01:38:38;;;;;;;17.5;20.7;;;;;;;9.6;92.4;99330;;;;
2022/09/22 01:49:38;;;;;;;17.5;20.7;;;;;;;9.6;92.2;99320;;;;
2022/09/22 02:00:38;;;;;;;19.5;25.4;;;;;;;9.7;92.1;99320;;;;
2022/09/22 02:11:38;;;;;;;19.5;25.4;;;;;;;9.5;91.1;99320;;;;
2022/09/22 02:22:38;;;;;;;19.6;25.1;;;;;;;9.5;91.5;99310;;;;
2022/09/22 02:33:38;;;;;;;19.6;25.1;;;;;;;9.6;91.1;99310;;;;
2022/09/22 02:43:38;;;;;;;19.6;25.1;;;;;;;9.7;91.4;99300;;;;
2022/09/22 02:54:38;;;;;;;18.9;23.5;;;;;;;9.7;91.2;99300;;;;
2022/09/22 03:04:38;;;;;;;18.9;23.5;;;;;;;9.7;90.9;99300;;;;
2022/09/22 03:14:38;;;;;;;18.9;23.5;;;;;;;9.7;91;99310;;;;
2022/09/22 03:25:38;;;;;;;20.5;24.4;;;;;;;9.7;90.7;99310;;;;
2022/09/22 03:35:38;;;;;;;20.5;24.4;;;;;;;9.7;90.9;99310;;;;
2022/09/22 03:45:38;;;;;;;20.5;24.4;;;;;;;9.6;90.4;99310;;;;
2022/09/22 03:56:38;;;;;;;20.4;25.9;;;;;;;9.7;90.8;99310;;;;
2022/09/22 04:06:38;;;;;;;20.4;25.9;;;;;;;9.7;90.4;99310;;;;
2022/09/22 04:16:41;;;;;;;20.4;25.9;;;;;;;9.5;90.1;99310;;;;
2022/09/22 04:27:38;;;;;;;24.3;31.3;;;;;;;9.5;90.2;99310;;;;
2022/09/22 04:38:38;;;;;;;24.3;31.3;;;;;;;9.3;90.2;99310;;;;
2022/09/22 04:49:38;;;;;;;24.3;31.3;;;;;;;9.4;90.4;99320;;;;
2022/09/22 04:59:38;;;;;;;22.5;32;;;;;;;9.4;90.1;99320;;;;
2022/09/22 05:09:38;;;;;;;22.5;32;;;;;;;9.4;90.6;99320;;;;
2022/09/22 05:20:38;;;;;;;24.3;34.2;;;;;;;9.4;90.1;99330;;;;
2022/09/22 05:30:38;;;;;;;24.3;34.2;;;;;;;9.4;89.5;99330;;;;
2022/09/22 05:41:38;;;;;;;24.3;34.2;;;;;;;9.4;88.9;99330;;;;
2022/09/22 05:51:38;;;;;;;18.8;23.8;;;;;;;9.5;88.8;99330;;;;
2022/09/22 06:01:38;;;;;;;18.8;23.8;;;;;;;9.5;88;99340;;;;
2022/09/22 06:11:38;;;;;;;18.8;23.8;;;;;;;9.6;87.9;99350;;;;
2022/09/22 06:21:38;;;;;;;17.5;26.9;;;;;;;9.8;86.5;99350;;;;
2022/09/22 06:32:38;;;;;;;17.5;26.9;;;;;;;10;86;99360;;;;
2022/09/22 06:43:38;;;;;;;17.5;26.9;;;;;;;10;84.7;99370;;;;
2022/09/22 06:53:38;;;;;;;14.1;17.9;;;;;;;10.2;83.1;99370;;;;
2022/09/22 07:04:38;;;;;;;14.1;17.9;;;;;;;10.4;83.5;99380;;;;
2022/09/22 07:15:38;;;;;;;14.1;17.9;;;;;;;10.5;82.6;99370;;;;
2022/09/22 07:26:38;;;;;;;12.7;15.9;;;;;;;10.7;81.7;99380;;;;
2022/09/22 07:37:39;;;;;;;12.7;15.9;;;;;;;11.3;81.2;99370;;;;
2022/09/22 07:48:44;;;;;;;12.7;15.9;;;;;;;11.8;78.9;99370;;;;
2022/09/22 07:58:40;;;;;;;13.9;18.5;;;;;;;11.8;78.8;99370;;;;
2022/09/22 08:09:38;;;;;;;13.9;18.5;;;;;;;12.1;78.4;99380;;;;
2022/09/22 08:20:38;;;;;;;10.3;13.6;;;;;;;12.3;76;99390;;;;
2022/09/22 08:30:38;;;;;;;10.3;13.6;;;;;;;13;76.5;99390;;;;
2022/09/22 08:40:39;;;;;;;10.3;13.6;;;;;;;13;74.3;99390;;;;
2022/09/22 08:51:54;;;;;;;9.5;13.4;;;;;;;12.9;73.9;99390;;;;
2022/09/22 09:01:38;;;;;;;9.5;13.4;;;;;;;13.3;73.5;99380;;;;
2022/09/22 09:11:38;;;;;;;9.5;13.4;;;;;;;13.1;73;99360;;;;
2022/09/22 09:22:39;;;;;;;6.8;9.4;;;;;;;13.4;73.2;99360;;;;
2022/09/22 09:33:39;;;;;;;6.8;9.4;;;;;;;14;71.8;99350;;;;
2022/09/22 09:43:41;;;;;;;6.8;9.4;;;;;;;14.4;69.9;99350;;;;
2022/09/22 09:53:38;;;;;;;5.5;9.1;;;;;;;14.5;68.3;99350;;;;
2022/09/22 10:04:38;;;;;;;5.5;9.1;;;;;;;15.1;66.9;99330;;;;
2022/09/22 10:14:38;;;;;;;5.5;9.1;;;;;;;14.8;66.5;99340;;;;
2022/09/22 10:24:38;;;;;;;4;6.2;;;;;;;14.1;67.5;99350;;;;
2022/09/22 10:35:38;;;;;;;4;6.2;;;;;;;14.3;69.4;99350;;;;
2022/09/22 10:46:38;;;;;;;4;6.2;;;;;;;14;69;99340;;;;
2022/09/22 10:56:38;;;;;;;4.1;6.3;;;;;;;15.2;68.5;99320;;;;
2022/09/22 11:18:38;;;;;;;4.1;6.3;;;;;;;13.9;68.9;99330;;;;
2022/09/22 11:29:40;;;;;;;2;4.8;;;;;;;13.4;70.3;99340;;;;
2022/09/22 11:39:38;;;;;;;2;4.8;;;;;;;13.3;70.7;99340;;;;
2022/09/22 11:49:38;;;;;;;2;4.8;;;;;;;13.9;70.1;99330;;;;
2022/09/22 12:00:38;;;;;;;1.5;3.4;;;;;;;14.3;69.7;99330;;;;
2022/09/22 12:10:39;;;;;;;1.5;3.4;;;;;;;14.1;71.1;99330;;;;
2022/09/22 12:20:38;;;;;;;2.5;4.3;;;;;;;13.6;73.3;99330;;;;
2022/09/22 12:31:38;;;;;;;2.5;4.3;;;;;;;13.5;73.7;99320;;;;
2022/09/22 12:41:38;;;;;;;2.5;4.3;;;;;;;13.6;72.5;99310;;;;
2022/09/22 12:51:38;;;;;;;1.6;3;;;;;;;13.5;70.8;99300;;;;
2022/09/22 13:02:38;;;;;;;1.6;3;;;;;;;13.6;70.6;99290;;;;
2022/09/22 13:12:38;;;;;;;1.6;3;;;;;;;13.6;71;99290;;;;
2022/09/22 13:23:38;;;;;;;2.1;6.9;;;;;;;14.2;71.1;99280;;;;
2022/09/22 13:34:38;;;;;;;2.1;6.9;;;;;;;13.9;71.6;99290;;;;
2022/09/22 13:44:38;;;;;;;2.1;6.9;;;;;;;13.8;71.3;99280;;;;
2022/09/22 13:54:38;;;;;;;2.5;6.6;;;;;;;14.2;72.1;99270;;;;
2022/09/22 14:05:38;;;;;;;2.5;6.6;;;;;;;14;70.5;99270;;;;
2022/09/22 14:16:38;;;;;;;2.5;6.6;;;;;;;13.6;73;99260;;;;
2022/09/22 14:26:38;;;;;;;3.5;6;;;;;;;13.4;74.6;99250;;;;
2022/09/22 14:37:38;;;;;;;3.5;6;;;;;;;13.5;74;99270;;;;
2022/09/22 14:47:39;;;;;;;3.5;6;;;;;;;13.5;74.2;99270;;;;
2022/09/22 14:58:38;;;;;;;3.6;6.3;;;;;;;14.1;71.9;99270;;;;
2022/09/22 15:09:38;;;;;;;3.6;6.3;;;;;;;14.2;72.3;99260;;;;
2022/09/22 15:19:38;;;;;;;3.6;6.5;;;;;;;14;72;99270;;;;
2022/09/22 15:29:39;;;;;;;3.6;6.5;;;;;;;13.7;72.6;99260;;;;
2022/09/22 15:39:38;;;;;;;3.6;6.5;;;;;;;13.3;72.8;99260;;;;
2022/09/22 15:49:38;;;;;;;3.9;6.4;;;;;;;13.1;73.6;99260;;;;
2022/09/22 16:00:38;;;;;;;3.9;6.4;;;;;;;13;74.5;99260;;;;
2022/09/22 16:11:38;;;;;;;3.9;6.4;;;;;;;12.5;75.1;99280;;;;
2022/09/22 16:21:39;;;;;;;3.6;5.8;;;;;;;12;77.4;99280;;;;
2022/09/22 16:32:38;;;;;;;3.6;5.8;;;;;;;11.5;78.7;99270;;;;
2022/09/22 16:43:38;;;;;;;3.6;5.8;;;;;;;11.4;79.8;99280;;;;
2022/09/22 16:53:38;;;;;;;5.2;7.6;;;;;;;11.2;81;99270;;;;
2022/09/22 17:04:38;;;;;;;5.2;7.6;;;;;;;11.1;81.4;99270;;;;
2022/09/22 17:14:42;;;;;;;5.2;7.6;;;;;;;11.1;82.1;99270;;;;
2022/09/22 17:25:38;;;;;;;6.8;8.8;;;;;;;11;82.2;99290;;;;
2022/09/22 17:36:38;;;;;;;6.8;8.8;;;;;;;10.9;82.4;99280;;;;
2022/09/22 17:55:05;;;;;;;6.8;8.8;;;;;;;10.8;82.2;99300;;;;
2022/09/22 17:57:38;;;;;;;7.2;11.1;;;;;;;10.8;82;99310;;;;
2022/09/22 18:08:41;;;;;;;7.2;11.1;;;;;;;10.8;82.2;99320;;;;
2022/09/22 18:18:38;;;;;;;7.2;11.1;;;;;;;10.8;82.8;99320;;;;
2022/09/22 18:29:38;;;;;;;10.7;13.7;;;;;;;10.7;82.7;99320;;;;
2022/09/22 18:39:40;;;;;;;10.7;13.7;;;;;;;10.7;82.8;99330;;;;
2022/09/22 18:50:38;;;;;;;10.3;13.3;;;;;;;10.7;82.9;99330;;;;
2022/09/22 19:01:38;;;;;;;10.3;13.3;;;;;;;10.6;83;99330;;;;
2022/09/22 19:11:38;;;;;;;10.3;13.3;;;;;;;10.4;83.6;99320;;;;
2022/09/22 19:22:38;;;;;;;8.8;14.6;;;;;;;10.5;83.7;99320;;;;
2022/09/22 19:32:38;;;;;;;8.8;14.6;;;;;;;10.4;84;99320;;;;
2022/09/22 19:43:38;;;;;;;8.8;14.6;;;;;;;10.3;84.3;99320;;;;
2022/09/22 19:53:38;;;;;;;9;12.9;;;;;;;10.4;84.3;99330;;;;
2022/09/22 20:03:38;;;;;;;9;12.9;;;;;;;10.3;84;99320;;;;
2022/09/22 20:14:42;;;;;;;9;12.9;;;;;;;10.3;83.9;99310;;;;
2022/09/22 20:24:38;;;;;;;9.8;13.4;;;;;;;10.3;83.9;99310;;;;
2022/09/22 20:34:39;;;;;;;9.8;13.4;;;;;;;10.3;84.2;99320;;;;
2022/09/22 20:45:38;;;;;;;9.8;13.4;;;;;;;10.3;84.4;99310;;;;
2022/09/22 20:55:38;;;;;;;10.5;14.2;;;;;;;10.4;84.1;99310;;;;
2022/09/22 21:06:38;;;;;;;10.5;14.2;;;;;;;10.3;84;99310;;;;
2022/09/22 21:16:38;;;;;;;10.5;14.2;;;;;;;10;85;99310;;;;
2022/09/22 21:27:38;;;;;;;10.1;15.2;;;;;;;10.1;85.5;99310;;;;
2022/09/22 21:37:38;;;;;;;10.1;15.2;;;;;;;10.1;86;99320;;;;
2022/09/22 21:47:38;;;;;;;10.1;15.2;;;;;;;10;86.3;99310;;;;
2022/09/22 21:58:38;;;;;;;11.9;15.5;;;;;;;10.2;86.1;99310;;;;
2022/09/22 22:08:38;;;;;;;11.9;15.5;;;;;;;10.2;86.3;99300;;;;
2022/09/22 22:18:38;;;;;;;11.9;15.5;;;;;;;10.1;86.5;99300;;;;
2022/09/22 22:29:38;;;;;;;12.4;17.3;;;;;;;10;86.3;99290;;;;
2022/09/22 22:39:38;;;;;;;12.4;17.3;;;;;;;9.9;86.4;99280;;;;
2022/09/22 22:49:38;;;;;;;13.6;16;;;;;;;9.8;86.8;99280;;;;
2022/09/22 22:59:38;;;;;;;13.6;16;;;;;;;9.8;87.1;99270;;;;
2022/09/22 23:10:38;;;;;;;13.6;16;;;;;;;9.8;87.1;99260;;;;
2022/09/22 23:21:39;;;;;;;14.9;20.4;;;;;;;9.7;87.1;99260;;;;
2022/09/22 23:32:38;;;;;;;14.9;20.4;;;;;;;9.8;87;99260;;;;
2022/09/22 23:42:38;;;;;;;14.9;20.4;;;;;;;9.8;87;99260;;;;
2022/09/22 23:52:38;;;;;;;13.3;16.8;;;;;;;9.8;86.8;99260;;;;
